createdAt,value
2022-09-09T03:55:44.154Z,100308.37
2022-09-09T03:58:46.866Z,100308.37
2022-09-09T04:01:49.352Z,100300.44
2022-09-09T04:04:51.784Z,100293.75
2022-09-09T04:07:57.420Z,100290.94
2022-09-09T04:11:03.134Z,100295.59
2022-09-09T04:14:06.981Z,100299.97
2022-09-09T04:17:09.781Z,100302.69
2022-09-09T04:20:13.094Z,100298.97
2022-09-09T04:23:16.860Z,100304.75
2022-09-09T04:26:19.586Z,100312.78
2022-09-09T04:29:21.959Z,100307.12
2022-09-09T04:32:24.372Z,100298.09
2022-09-09T04:35:28.130Z,100295.00
2022-09-09T04:38:31.316Z,100294.09
2022-09-09T04:41:33.677Z,100301.00
2022-09-09T04:44:35.950Z,100304.75
2022-09-09T04:47:38.298Z,100291.16
2022-09-09T04:50:41.523Z,100294.47
2022-09-09T04:53:46.568Z,100288.69
2022-09-09T04:56:52.075Z,100295.56
2022-09-09T04:59:54.747Z,100296.59
2022-09-09T05:02:56.984Z,100289.59
2022-09-09T05:06:09.293Z,100297.38
2022-09-09T05:09:11.896Z,100306.56
2022-09-09T05:12:14.288Z,100309.03
2022-09-09T05:15:16.546Z,100305.19
2022-09-09T05:18:18.849Z,100305.44
2022-09-09T05:21:23.971Z,100308.84
2022-09-09T05:24:26.283Z,100311.09
2022-09-09T05:27:28.757Z,100308.25
2022-09-09T05:30:31.323Z,100312.47
2022-09-09T05:33:35.879Z,100312.69
2022-09-09T05:36:38.595Z,100306.78
2022-09-09T05:39:41.585Z,100316.75
2022-09-09T05:42:44.981Z,100313.34
2022-09-09T05:45:48.457Z,100317.31
2022-09-09T05:48:52.329Z,100323.31
2022-09-09T05:51:54.690Z,100323.06
2022-09-09T05:55:00.159Z,100321.72
2022-09-09T05:58:02.226Z,100323.66
2022-09-09T06:01:14.335Z,100326.97
2022-09-09T06:04:17.189Z,100322.31
2022-09-09T06:07:19.297Z,100323.75
2022-09-09T06:10:22.535Z,100323.97
2022-09-09T06:13:25.226Z,100320.78
2022-09-09T06:16:30.528Z,100320.75
2022-09-09T06:19:32.818Z,100322.09
2022-09-09T06:22:35.397Z,100318.81
2022-09-09T06:25:38.057Z,100329.44
2022-09-09T06:28:40.528Z,100325.91
2022-09-09T06:31:42.773Z,100333.16
2022-09-09T06:34:46.397Z,100331.78
2022-09-09T06:37:49.747Z,100333.47
2022-09-09T06:40:59.437Z,100323.38
2022-09-09T06:44:03.000Z,100327.91
2022-09-09T06:47:07.018Z,100319.41
2022-09-09T06:50:11.261Z,100320.81
2022-09-09T06:53:17.689Z,100320.81
2022-09-09T06:56:33.163Z,100323.53
2022-09-09T06:59:36.461Z,100325.28
2022-09-09T07:02:40.549Z,100336.72
2022-09-09T07:05:42.949Z,100334.19
2022-09-09T07:08:56.211Z,100344.56
2022-09-09T07:12:00.562Z,100342.72
2022-09-09T07:15:03.217Z,100336.31
2022-09-09T07:18:06.292Z,100345.34
2022-09-09T07:21:13.954Z,100354.12
2022-09-09T07:24:16.804Z,100348.78
2022-09-09T07:27:19.181Z,100347.09
2022-09-09T07:30:27.545Z,100344.12
2022-09-09T07:33:31.970Z,100344.12
2022-09-09T07:36:37.094Z,100347.38
2022-09-09T07:39:39.772Z,100359.50
2022-09-09T07:42:42.730Z,100355.22
2022-09-09T07:45:44.813Z,100353.56
2022-09-09T07:48:52.837Z,100357.41
2022-09-09T07:51:55.397Z,100353.22
2022-09-09T07:54:58.191Z,100361.47
2022-09-09T07:58:00.473Z,100362.78
2022-09-09T08:01:11.205Z,100360.41
2022-09-09T08:04:19.398Z,100356.63
2022-09-09T08:07:22.463Z,100341.59
2022-09-09T08:10:25.185Z,100352.03
2022-09-09T08:13:28.297Z,100344.12
2022-09-09T08:16:33.448Z,100354.25
2022-09-09T08:19:37.031Z,100345.84
2022-09-09T08:22:41.774Z,100343.28
2022-09-09T08:25:43.870Z,100353.94
2022-09-09T08:28:46.170Z,100346.34
2022-09-09T08:31:55.255Z,100351.81
2022-09-09T08:35:01.231Z,100342.59
2022-09-09T08:38:07.643Z,100349.16
2022-09-09T08:41:50.212Z,100349.16
2022-09-09T08:45:25.059Z,100348.25
2022-09-09T08:48:46.289Z,100347.25
2022-09-09T08:51:50.694Z,100343.88
2022-09-09T08:54:56.194Z,100345.00
2022-09-09T08:58:02.404Z,100345.00
2022-09-09T09:01:41.235Z,100347.31
2022-09-09T09:05:20.049Z,100344.69
2022-09-09T09:08:48.639Z,100344.75
2022-09-09T09:12:02.493Z,100343.97
2022-09-09T09:15:18.038Z,100340.88
2022-09-09T09:18:20.659Z,100342.37
2022-09-09T09:21:37.416Z,100338.91
2022-09-09T09:24:56.016Z,100338.56
2022-09-09T09:28:01.622Z,100328.94
2022-09-09T09:31:09.697Z,100331.41
2022-09-09T09:34:13.077Z,100324.47
2022-09-09T09:37:27.669Z,100318.66
2022-09-09T09:40:31.110Z,100316.72
2022-09-09T09:43:34.616Z,100318.44
2022-09-09T09:46:38.212Z,100318.09
2022-09-09T09:50:00.398Z,100318.87
2022-09-09T09:53:07.357Z,100326.00
2022-09-09T09:56:13.693Z,100317.12
2022-09-09T09:59:44.033Z,100325.37
2022-09-09T10:02:48.139Z,100326.41
2022-09-09T10:05:51.543Z,100321.16
2022-09-09T10:08:53.879Z,100309.84
2022-09-09T10:12:24.260Z,100314.16
2022-09-09T10:15:46.854Z,100304.38
2022-09-09T10:19:09.105Z,100312.00
2022-09-09T10:22:28.646Z,100300.25
2022-09-09T10:25:51.740Z,100306.25
2022-09-09T10:29:12.555Z,100307.91
2022-09-09T10:32:41.444Z,100306.38
2022-09-09T10:35:59.078Z,100310.00
2022-09-09T10:39:30.987Z,100304.75
2022-09-09T10:42:33.422Z,100303.25
2022-09-09T10:45:58.478Z,100304.75
2022-09-09T10:49:24.191Z,100304.75
2022-09-09T10:52:48.853Z,100300.91
2022-09-09T10:56:07.057Z,100298.19
2022-09-09T10:59:21.741Z,100298.09
2022-09-09T11:02:32.194Z,100299.09
2022-09-09T11:05:43.934Z,100297.31
2022-09-09T11:08:46.631Z,100292.91
2022-09-09T11:11:55.454Z,100285.41
2022-09-09T11:15:08.062Z,100286.62
2022-09-09T11:18:17.292Z,100284.72
2022-09-09T11:21:50.553Z,100286.38
2022-09-09T11:25:01.317Z,100284.91
2022-09-09T11:28:37.520Z,100284.91
2022-09-09T11:31:57.282Z,100286.91
2022-09-09T11:35:24.594Z,100283.28
2022-09-09T11:38:47.586Z,100285.16
2022-09-09T11:41:49.926Z,100283.47
2022-09-09T11:44:55.712Z,100284.66
2022-09-09T11:48:00.188Z,100281.56
2022-09-09T11:51:05.985Z,100271.47
2022-09-09T11:54:31.102Z,100282.88
2022-09-09T11:57:36.864Z,100278.59
2022-09-09T12:00:49.716Z,100267.50
2022-09-09T12:03:56.866Z,100268.03
2022-09-09T12:07:21.500Z,100261.41
2022-09-09T12:10:42.725Z,100270.34
2022-09-09T12:13:53.922Z,100270.22
2022-09-09T12:16:56.274Z,100278.84
2022-09-09T12:20:13.526Z,100286.59
2022-09-09T12:23:38.928Z,100280.91
2022-09-09T12:26:54.773Z,100284.06
2022-09-09T12:30:11.774Z,100274.00
2022-09-09T12:33:18.576Z,100272.84
2022-09-09T12:36:25.507Z,100265.38
2022-09-09T12:39:34.770Z,100259.09
2022-09-09T12:42:41.523Z,100252.84
2022-09-09T12:45:43.816Z,100255.22
2022-09-09T12:48:46.655Z,100257.53
2022-09-09T12:51:50.162Z,100250.87
2022-09-09T12:54:52.891Z,100238.50
2022-09-09T12:57:55.026Z,100239.59
2022-09-09T13:00:58.336Z,100241.13
2022-09-09T13:04:00.978Z,100237.47
2022-09-09T13:07:08.346Z,100232.03
2022-09-09T13:10:21.351Z,100217.50
2022-09-09T13:13:37.676Z,100215.09
2022-09-09T13:16:43.026Z,100212.38
2022-09-09T13:19:51.285Z,100210.06
2022-09-09T13:22:55.767Z,100212.06
2022-09-09T13:26:03.292Z,100203.91
2022-09-09T13:29:18.970Z,100209.53
2022-09-09T13:32:21.457Z,100203.25
2022-09-09T13:35:24.987Z,100201.25
2022-09-09T13:38:31.742Z,100202.03
2022-09-09T13:41:43.018Z,100198.88
2022-09-09T13:44:47.462Z,100198.06
2022-09-09T13:47:53.617Z,100192.16
2022-09-09T13:51:07.601Z,100183.94
2022-09-09T13:54:11.602Z,100182.47
2022-09-09T13:57:24.395Z,100177.03
2022-09-09T14:00:26.440Z,100182.56
2022-09-09T14:03:28.728Z,100178.69
2022-09-09T14:06:30.878Z,100166.56
2022-09-09T14:09:33.169Z,100160.69
2022-09-09T14:12:37.138Z,100160.72
2022-09-09T14:15:39.587Z,100159.47
2022-09-09T14:18:41.841Z,100148.47
2022-09-09T14:21:45.400Z,100152.72
2022-09-09T14:24:47.559Z,100155.41
2022-09-09T14:27:52.217Z,100154.72
2022-09-09T14:30:54.274Z,100162.16
2022-09-09T14:33:56.594Z,100158.22
2022-09-09T14:36:59.206Z,100153.88
2022-09-09T14:40:01.936Z,100151.91
2022-09-09T14:43:05.702Z,100154.69
2022-09-09T14:46:13.472Z,100148.41
2022-09-09T14:49:16.371Z,100149.94
2022-09-09T14:52:18.639Z,100146.81
2022-09-09T14:55:20.791Z,100147.59
